Terminal Aerodrome Forecast
Issued by NWS

Home | Current Version | Previous Version | Text Only | Print | Product List | Glossary On
Versions: 1 2 3 4 5 6 7 8 9 10 11 12 13 14 15 16 17 18 19 20 21 22 23 24 25 26 27 28 29
000
FTPQ31 PGUM 050950 AAA
TAFGUM
TAF AMD

TAF AMD
PGWT 050950Z 0510/0606 22011KT P6SM VCSH FEW016 SCT040 OVC100
      TEMPO 0510/0514 5SM SHRA SCT014 BKN025=

USA.gov is the U.S. government's official web portal to all federal, state and local government web resources and services.